sensor_id;sensor_type;location;lat;lon;timestamp;P1;durP1;ratioP1;P2;durP2;ratioP2
18322;SDS011;9287;49.456;11.064;2023-07-20T00:00:47;4.10;;;2.60;;
18322;SDS011;9287;49.456;11.064;2023-07-20T00:03:16;2.80;;;2.53;;
18322;SDS011;9287;49.456;11.064;2023-07-20T00:05:45;3.90;;;2.85;;
18322;SDS011;9287;49.456;11.064;2023-07-20T00:08:13;4.82;;;3.05;;
18322;SDS011;9287;49.456;11.064;2023-07-20T00:10:41;3.05;;;2.38;;
18322;SDS011;9287;49.456;11.064;2023-07-20T00:13:09;4.13;;;2.83;;
18322;SDS011;9287;49.456;11.064;2023-07-20T00:15:39;4.68;;;3.08;;
18322;SDS011;9287;49.456;11.064;2023-07-20T00:18:07;4.10;;;3.20;;
18322;SDS011;9287;49.456;11.064;2023-07-20T00:20:35;4.70;;;2.65;;
18322;SDS011;9287;49.456;11.064;2023-07-20T00:23:03;2.47;;;2.17;;
18322;SDS011;9287;49.456;11.064;2023-07-20T00:25:31;3.70;;;2.60;;
18322;SDS011;9287;49.456;11.064;2023-07-20T00:28:02;3.40;;;3.05;;
18322;SDS011;9287;49.456;11.064;2023-07-20T00:30:30;3.75;;;2.83;;
18322;SDS011;9287;49.456;11.064;2023-07-20T00:33:02;4.28;;;2.40;;
18322;SDS011;9287;49.456;11.064;2023-07-20T00:35:30;3.17;;;2.55;;
18322;SDS011;9287;49.456;11.064;2023-07-20T00:37:57;4.43;;;3.22;;
18322;SDS011;9287;49.456;11.064;2023-07-20T00:40:27;5.00;;;3.17;;
18322;SDS011;9287;49.456;11.064;2023-07-20T00:42:55;3.65;;;3.05;;
18322;SDS011;9287;49.456;11.064;2023-07-20T00:45:23;2.97;;;2.60;;
18322;SDS011;9287;49.456;11.064;2023-07-20T00:47:55;4.63;;;2.88;;
18322;SDS011;9287;49.456;11.064;2023-07-20T00:50:25;2.65;;;2.45;;
18322;SDS011;9287;49.456;11.064;2023-07-20T00:52:54;3.53;;;2.58;;
18322;SDS011;9287;49.456;11.064;2023-07-20T00:55:24;4.75;;;2.70;;
18322;SDS011;9287;49.456;11.064;2023-07-20T00:57:52;3.63;;;2.97;;
18322;SDS011;9287;49.456;11.064;2023-07-20T01:00:20;3.05;;;2.85;;
18322;SDS011;9287;49.456;11.064;2023-07-20T01:02:48;3.85;;;2.90;;
18322;SDS011;9287;49.456;11.064;2023-07-20T01:05:16;4.45;;;2.97;;
18322;SDS011;9287;49.456;11.064;2023-07-20T01:07:49;6.43;;;3.22;;
18322;SDS011;9287;49.456;11.064;2023-07-20T01:10:25;4.25;;;3.03;;
18322;SDS011;9287;49.456;11.064;2023-07-20T01:12:58;4.07;;;3.63;;
18322;SDS011;9287;49.456;11.064;2023-07-20T01:15:29;3.90;;;3.50;;
18322;SDS011;9287;49.456;11.064;2023-07-20T01:17:56;6.20;;;3.45;;
18322;SDS011;9287;49.456;11.064;2023-07-20T01:20:27;5.57;;;3.50;;
18322;SDS011;9287;49.456;11.064;2023-07-20T01:23:11;5.30;;;3.53;;
18322;SDS011;9287;49.456;11.064;2023-07-20T01:25:54;5.13;;;3.20;;
18322;SDS011;9287;49.456;11.064;2023-07-20T01:28:37;4.85;;;3.30;;
18322;SDS011;9287;49.456;11.064;2023-07-20T01:31:23;4.53;;;3.90;;
18322;SDS011;9287;49.456;11.064;2023-07-20T01:33:53;4.32;;;3.40;;
18322;SDS011;9287;49.456;11.064;2023-07-20T01:36:25;5.53;;;3.92;;
18322;SDS011;9287;49.456;11.064;2023-07-20T01:38:55;5.38;;;3.85;;
18322;SDS011;9287;49.456;11.064;2023-07-20T01:41:24;4.40;;;3.42;;
18322;SDS011;9287;49.456;11.064;2023-07-20T01:43:52;3.40;;;2.97;;
18322;SDS011;9287;49.456;11.064;2023-07-20T01:46:20;4.40;;;3.30;;
18322;SDS011;9287;49.456;11.064;2023-07-20T01:48:50;4.15;;;3.33;;
18322;SDS011;9287;49.456;11.064;2023-07-20T01:51:18;3.95;;;3.35;;
18322;SDS011;9287;49.456;11.064;2023-07-20T01:53:46;7.10;;;4.40;;
18322;SDS011;9287;49.456;11.064;2023-07-20T01:56:14;5.00;;;3.85;;
18322;SDS011;9287;49.456;11.064;2023-07-20T01:58:41;5.47;;;3.45;;
18322;SDS011;9287;49.456;11.064;2023-07-20T02:01:09;6.82;;;3.17;;
18322;SDS011;9287;49.456;11.064;2023-07-20T02:03:37;4.43;;;3.45;;
18322;SDS011;9287;49.456;11.064;2023-07-20T02:06:06;4.72;;;3.42;;
18322;SDS011;9287;49.456;11.064;2023-07-20T02:08:39;4.65;;;3.50;;
18322;SDS011;9287;49.456;11.064;2023-07-20T02:11:07;4.60;;;2.97;;
18322;SDS011;9287;49.456;11.064;2023-07-20T02:13:36;3.83;;;3.53;;
18322;SDS011;9287;49.456;11.064;2023-07-20T02:16:04;3.75;;;3.35;;
18322;SDS011;9287;49.456;11.064;2023-07-20T02:18:32;4.05;;;3.40;;
18322;SDS011;9287;49.456;11.064;2023-07-20T02:21:01;5.53;;;4.07;;
18322;SDS011;9287;49.456;11.064;2023-07-20T02:23:30;4.45;;;3.80;;
18322;SDS011;9287;49.456;11.064;2023-07-20T02:25:59;6.43;;;3.95;;
18322;SDS011;9287;49.456;11.064;2023-07-20T02:28:27;6.18;;;3.83;;
18322;SDS011;9287;49.456;11.064;2023-07-20T02:30:55;4.28;;;3.67;;
18322;SDS011;9287;49.456;11.064;2023-07-20T02:33:23;5.55;;;4.00;;
18322;SDS011;9287;49.456;11.064;2023-07-20T02:35:51;4.07;;;3.70;;
18322;SDS011;9287;49.456;11.064;2023-07-20T02:38:19;5.88;;;3.92;;
18322;SDS011;9287;49.456;11.064;2023-07-20T02:40:48;5.13;;;4.03;;
18322;SDS011;9287;49.456;11.064;2023-07-20T02:43:16;4.72;;;4.05;;
18322;SDS011;9287;49.456;11.064;2023-07-20T02:45:44;4.80;;;4.28;;
18322;SDS011;9287;49.456;11.064;2023-07-20T02:48:12;6.70;;;4.18;;
18322;SDS011;9287;49.456;11.064;2023-07-20T02:50:40;4.07;;;3.70;;
18322;SDS011;9287;49.456;11.064;2023-07-20T02:53:09;4.25;;;3.85;;
18322;SDS011;9287;49.456;11.064;2023-07-20T02:55:37;4.53;;;3.67;;
18322;SDS011;9287;49.456;11.064;2023-07-20T02:58:09;4.47;;;3.75;;
18322;SDS011;9287;49.456;11.064;2023-07-20T03:00:37;4.43;;;3.95;;
18322;SDS011;9287;49.456;11.064;2023-07-20T03:03:09;8.70;;;4.05;;
18322;SDS011;9287;49.456;11.064;2023-07-20T03:05:40;5.72;;;3.60;;
18322;SDS011;9287;49.456;11.064;2023-07-20T03:08:08;6.28;;;3.47;;
18322;SDS011;9287;49.456;11.064;2023-07-20T03:10:41;4.53;;;3.72;;
18322;SDS011;9287;49.456;11.064;2023-07-20T03:13:12;4.80;;;3.65;;
18322;SDS011;9287;49.456;11.064;2023-07-20T03:15:40;5.90;;;3.55;;
18322;SDS011;9287;49.456;11.064;2023-07-20T03:18:08;3.20;;;2.90;;
18322;SDS011;9287;49.456;11.064;2023-07-20T03:20:36;5.63;;;3.63;;
18322;SDS011;9287;49.456;11.064;2023-07-20T03:23:06;6.95;;;3.47;;
18322;SDS011;9287;49.456;11.064;2023-07-20T03:25:35;5.50;;;3.85;;
18322;SDS011;9287;49.456;11.064;2023-07-20T03:28:04;8.80;;;3.60;;
18322;SDS011;9287;49.456;11.064;2023-07-20T03:30:33;5.05;;;3.40;;
18322;SDS011;9287;49.456;11.064;2023-07-20T03:33:02;5.57;;;3.67;;
18322;SDS011;9287;49.456;11.064;2023-07-20T03:35:30;4.10;;;3.20;;
18322;SDS011;9287;49.456;11.064;2023-07-20T03:37:58;4.85;;;3.50;;
18322;SDS011;9287;49.456;11.064;2023-07-20T03:40:26;7.47;;;3.00;;
18322;SDS011;9287;49.456;11.064;2023-07-20T03:42:54;3.25;;;2.95;;
18322;SDS011;9287;49.456;11.064;2023-07-20T03:45:21;5.43;;;3.10;;
18322;SDS011;9287;49.456;11.064;2023-07-20T03:47:51;5.32;;;3.05;;
18322;SDS011;9287;49.456;11.064;2023-07-20T03:50:19;4.22;;;2.90;;
18322;SDS011;9287;49.456;11.064;2023-07-20T03:52:47;4.68;;;2.97;;
18322;SDS011;9287;49.456;11.064;2023-07-20T03:55:15;5.20;;;3.08;;
18322;SDS011;9287;49.456;11.064;2023-07-20T03:57:42;5.20;;;3.42;;
18322;SDS011;9287;49.456;11.064;2023-07-20T04:00:11;6.95;;;3.10;;
18322;SDS011;9287;49.456;11.064;2023-07-20T04:02:41;2.70;;;2.38;;
18322;SDS011;9287;49.456;11.064;2023-07-20T04:05:12;4.95;;;2.88;;
18322;SDS011;9287;49.456;11.064;2023-07-20T04:07:49;6.20;;;3.17;;
18322;SDS011;9287;49.456;11.064;2023-07-20T04:10:22;5.32;;;3.15;;
18322;SDS011;9287;49.456;11.064;2023-07-20T04:12:52;5.78;;;3.00;;
18322;SDS011;9287;49.456;11.064;2023-07-20T04:15:25;6.40;;;3.15;;
18322;SDS011;9287;49.456;11.064;2023-07-20T04:17:53;5.50;;;2.67;;
18322;SDS011;9287;49.456;11.064;2023-07-20T04:20:24;5.30;;;2.60;;
18322;SDS011;9287;49.456;11.064;2023-07-20T04:22:51;3.83;;;2.60;;
18322;SDS011;9287;49.456;11.064;2023-07-20T04:25:20;6.32;;;2.97;;
18322;SDS011;9287;49.456;11.064;2023-07-20T04:27:51;5.68;;;2.50;;
18322;SDS011;9287;49.456;11.064;2023-07-20T04:30:21;6.40;;;3.30;;
18322;SDS011;9287;49.456;11.064;2023-07-20T04:32:49;4.35;;;2.60;;
18322;SDS011;9287;49.456;11.064;2023-07-20T04:35:18;3.90;;;2.85;;
18322;SDS011;9287;49.456;11.064;2023-07-20T04:38:08;6.07;;;3.30;;
18322;SDS011;9287;49.456;11.064;2023-07-20T04:40:36;3.47;;;3.08;;
18322;SDS011;9287;49.456;11.064;2023-07-20T04:43:11;5.22;;;2.83;;
18322;SDS011;9287;49.456;11.064;2023-07-20T04:45:40;6.75;;;3.05;;
18322;SDS011;9287;49.456;11.064;2023-07-20T04:48:09;4.55;;;2.67;;
18322;SDS011;9287;49.456;11.064;2023-07-20T04:50:40;4.32;;;2.88;;
18322;SDS011;9287;49.456;11.064;2023-07-20T04:53:11;5.40;;;2.90;;
18322;SDS011;9287;49.456;11.064;2023-07-20T04:55:39;4.90;;;2.42;;
18322;SDS011;9287;49.456;11.064;2023-07-20T04:58:08;7.85;;;3.28;;
18322;SDS011;9287;49.456;11.064;2023-07-20T05:00:37;7.70;;;2.78;;
18322;SDS011;9287;49.456;11.064;2023-07-20T05:03:08;6.60;;;2.55;;
18322;SDS011;9287;49.456;11.064;2023-07-20T05:05:40;4.40;;;2.90;;
18322;SDS011;9287;49.456;11.064;2023-07-20T05:08:08;4.80;;;3.35;;
18322;SDS011;9287;49.456;11.064;2023-07-20T05:10:40;6.82;;;2.50;;
18322;SDS011;9287;49.456;11.064;2023-07-20T05:13:09;4.95;;;2.60;;
18322;SDS011;9287;49.456;11.064;2023-07-20T05:15:40;4.20;;;3.05;;
18322;SDS011;9287;49.456;11.064;2023-07-20T05:18:08;6.30;;;2.97;;
18322;SDS011;9287;49.456;11.064;2023-07-20T05:20:37;3.30;;;2.60;;
18322;SDS011;9287;49.456;11.064;2023-07-20T05:23:05;5.18;;;2.67;;
18322;SDS011;9287;49.456;11.064;2023-07-20T05:25:35;6.53;;;2.90;;
18322;SDS011;9287;49.456;11.064;2023-07-20T05:28:06;4.65;;;2.80;;
18322;SDS011;9287;49.456;11.064;2023-07-20T05:30:34;7.75;;;2.50;;
18322;SDS011;9287;49.456;11.064;2023-07-20T05:33:02;7.60;;;2.80;;
18322;SDS011;9287;49.456;11.064;2023-07-20T05:35:30;3.63;;;2.47;;
18322;SDS011;9287;49.456;11.064;2023-07-20T05:37:58;5.30;;;2.80;;
18322;SDS011;9287;49.456;11.064;2023-07-20T05:40:25;7.10;;;2.45;;
18322;SDS011;9287;49.456;11.064;2023-07-20T05:42:53;5.75;;;3.33;;
18322;SDS011;9287;49.456;11.064;2023-07-20T05:45:24;4.85;;;2.45;;
18322;SDS011;9287;49.456;11.064;2023-07-20T05:47:52;3.90;;;2.40;;
18322;SDS011;9287;49.456;11.064;2023-07-20T05:50:20;4.43;;;1.67;;
18322;SDS011;9287;49.456;11.064;2023-07-20T05:52:48;2.50;;;2.10;;
18322;SDS011;9287;49.456;11.064;2023-07-20T05:55:16;5.30;;;2.53;;
18322;SDS011;9287;49.456;11.064;2023-07-20T05:57:45;2.22;;;1.92;;
18322;SDS011;9287;49.456;11.064;2023-07-20T06:00:14;7.00;;;2.20;;
18322;SDS011;9287;49.456;11.064;2023-07-20T06:02:46;3.30;;;2.22;;
18322;SDS011;9287;49.456;11.064;2023-07-20T06:05:14;8.07;;;1.98;;
18322;SDS011;9287;49.456;11.064;2023-07-20T06:07:42;4.60;;;2.30;;
18322;SDS011;9287;49.456;11.064;2023-07-20T06:10:10;3.17;;;1.90;;
18322;SDS011;9287;49.456;11.064;2023-07-20T06:12:38;4.55;;;1.77;;
18322;SDS011;9287;49.456;11.064;2023-07-20T06:15:09;2.80;;;1.52;;
18322;SDS011;9287;49.456;11.064;2023-07-20T06:17:54;4.10;;;1.90;;
18322;SDS011;9287;49.456;11.064;2023-07-20T06:20:24;3.83;;;2.08;;
18322;SDS011;9287;49.456;11.064;2023-07-20T06:22:52;3.55;;;1.70;;
18322;SDS011;9287;49.456;11.064;2023-07-20T06:25:21;4.32;;;1.70;;
18322;SDS011;9287;49.456;11.064;2023-07-20T06:27:49;8.07;;;2.17;;
18322;SDS011;9287;49.456;11.064;2023-07-20T06:30:17;4.97;;;1.90;;
18322;SDS011;9287;49.456;11.064;2023-07-20T06:32:45;3.03;;;1.80;;
18322;SDS011;9287;49.456;11.064;2023-07-20T06:35:15;4.47;;;2.00;;
18322;SDS011;9287;49.456;11.064;2023-07-20T06:37:43;6.07;;;1.92;;
18322;SDS011;9287;49.456;11.064;2023-07-20T06:40:11;3.40;;;1.90;;
18322;SDS011;9287;49.456;11.064;2023-07-20T06:42:42;5.43;;;1.95;;
18322;SDS011;9287;49.456;11.064;2023-07-20T06:45:13;4.15;;;2.38;;
18322;SDS011;9287;49.456;11.064;2023-07-20T06:47:42;4.97;;;2.30;;
18322;SDS011;9287;49.456;11.064;2023-07-20T06:50:10;3.33;;;2.03;;
18322;SDS011;9287;49.456;11.064;2023-07-20T06:52:44;4.15;;;2.00;;
18322;SDS011;9287;49.456;11.064;2023-07-20T06:55:14;4.88;;;1.95;;
18322;SDS011;9287;49.456;11.064;2023-07-20T06:57:49;5.72;;;2.10;;
18322;SDS011;9287;49.456;11.064;2023-07-20T07:00:18;6.03;;;2.03;;
18322;SDS011;9287;49.456;11.064;2023-07-20T07:02:46;2.70;;;2.00;;
18322;SDS011;9287;49.456;11.064;2023-07-20T07:05:16;3.28;;;1.65;;
18322;SDS011;9287;49.456;11.064;2023-07-20T07:07:48;3.05;;;1.77;;
18322;SDS011;9287;49.456;11.064;2023-07-20T07:10:16;4.35;;;1.73;;
18322;SDS011;9287;49.456;11.064;2023-07-20T07:12:44;9.02;;;2.47;;
18322;SDS011;9287;49.456;11.064;2023-07-20T07:15:12;3.10;;;1.88;;
18322;SDS011;9287;49.456;11.064;2023-07-20T07:17:40;9.32;;;1.83;;
18322;SDS011;9287;49.456;11.064;2023-07-20T07:20:10;9.57;;;2.80;;
18322;SDS011;9287;49.456;11.064;2023-07-20T07:22:49;5.53;;;1.77;;
18322;SDS011;9287;49.456;11.064;2023-07-20T07:25:18;4.93;;;1.73;;
18322;SDS011;9287;49.456;11.064;2023-07-20T07:27:49;1.48;;;1.02;;
18322;SDS011;9287;49.456;11.064;2023-07-20T07:30:18;3.83;;;1.48;;
18322;SDS011;9287;49.456;11.064;2023-07-20T07:32:46;1.85;;;1.00;;
18322;SDS011;9287;49.456;11.064;2023-07-20T07:35:14;2.55;;;1.00;;
18322;SDS011;9287;49.456;11.064;2023-07-20T07:37:42;2.33;;;1.02;;
18322;SDS011;9287;49.456;11.064;2023-07-20T07:40:31;2.88;;;0.90;;
18322;SDS011;9287;49.456;11.064;2023-07-20T07:42:59;3.20;;;1.10;;
18322;SDS011;9287;49.456;11.064;2023-07-20T07:45:27;2.05;;;1.08;;
18322;SDS011;9287;49.456;11.064;2023-07-20T07:47:55;2.80;;;1.10;;
18322;SDS011;9287;49.456;11.064;2023-07-20T07:50:22;1.05;;;0.88;;
18322;SDS011;9287;49.456;11.064;2023-07-20T07:52:51;5.22;;;1.10;;
18322;SDS011;9287;49.456;11.064;2023-07-20T07:55:18;2.35;;;0.85;;
18322;SDS011;9287;49.456;11.064;2023-07-20T07:57:47;2.08;;;1.10;;
18322;SDS011;9287;49.456;11.064;2023-07-20T08:00:16;1.48;;;0.80;;
18322;SDS011;9287;49.456;11.064;2023-07-20T08:02:45;2.33;;;0.80;;
18322;SDS011;9287;49.456;11.064;2023-07-20T08:05:14;2.13;;;1.20;;
18322;SDS011;9287;49.456;11.064;2023-07-20T08:07:43;1.65;;;1.00;;
18322;SDS011;9287;49.456;11.064;2023-07-20T08:10:11;2.92;;;0.90;;
18322;SDS011;9287;49.456;11.064;2023-07-20T08:12:39;1.80;;;0.90;;
18322;SDS011;9287;49.456;11.064;2023-07-20T08:15:10;2.55;;;1.13;;
18322;SDS011;9287;49.456;11.064;2023-07-20T08:17:39;2.10;;;0.90;;
18322;SDS011;9287;49.456;11.064;2023-07-20T08:20:08;3.22;;;0.88;;
18322;SDS011;9287;49.456;11.064;2023-07-20T08:22:38;1.30;;;0.90;;
18322;SDS011;9287;49.456;11.064;2023-07-20T08:25:07;1.50;;;0.90;;
18322;SDS011;9287;49.456;11.064;2023-07-20T08:27:36;2.58;;;1.00;;
18322;SDS011;9287;49.456;11.064;2023-07-20T08:30:04;4.82;;;0.77;;
18322;SDS011;9287;49.456;11.064;2023-07-20T08:32:35;4.07;;;0.90;;
18322;SDS011;9287;49.456;11.064;2023-07-20T08:35:03;4.18;;;0.80;;
18322;SDS011;9287;49.456;11.064;2023-07-20T08:37:33;2.00;;;0.75;;
18322;SDS011;9287;49.456;11.064;2023-07-20T08:40:01;4.07;;;1.00;;
18322;SDS011;9287;49.456;11.064;2023-07-20T08:42:30;1.75;;;0.90;;
18322;SDS011;9287;49.456;11.064;2023-07-20T08:44:58;1.38;;;0.80;;
18322;SDS011;9287;49.456;11.064;2023-07-20T08:47:27;1.35;;;0.52;;
18322;SDS011;9287;49.456;11.064;2023-07-20T08:49:57;1.75;;;0.70;;
18322;SDS011;9287;49.456;11.064;2023-07-20T08:52:26;0.85;;;0.60;;
18322;SDS011;9287;49.456;11.064;2023-07-20T08:54:54;1.30;;;0.80;;
18322;SDS011;9287;49.456;11.064;2023-07-20T08:57:23;1.20;;;0.60;;
18322;SDS011;9287;49.456;11.064;2023-07-20T08:59:50;1.55;;;0.70;;
18322;SDS011;9287;49.456;11.064;2023-07-20T09:02:20;0.88;;;0.70;;
18322;SDS011;9287;49.456;11.064;2023-07-20T09:04:53;1.08;;;0.60;;
18322;SDS011;9287;49.456;11.064;2023-07-20T09:07:22;0.88;;;0.60;;
18322;SDS011;9287;49.456;11.064;2023-07-20T09:09:52;1.25;;;0.60;;
18322;SDS011;9287;49.456;11.064;2023-07-20T09:12:23;1.58;;;0.70;;
18322;SDS011;9287;49.456;11.064;2023-07-20T09:14:51;3.63;;;0.55;;
18322;SDS011;9287;49.456;11.064;2023-07-20T09:17:19;1.33;;;0.57;;
18322;SDS011;9287;49.456;11.064;2023-07-20T09:19:48;1.27;;;0.40;;
18322;SDS011;9287;49.456;11.064;2023-07-20T09:22:16;1.33;;;0.60;;
18322;SDS011;9287;49.456;11.064;2023-07-20T09:24:46;2.42;;;0.65;;
18322;SDS011;9287;49.456;11.064;2023-07-20T09:27:14;3.08;;;0.77;;
18322;SDS011;9287;49.456;11.064;2023-07-20T09:29:51;0.80;;;0.50;;
18322;SDS011;9287;49.456;11.064;2023-07-20T09:32:20;0.68;;;0.60;;
18322;SDS011;9287;49.456;11.064;2023-07-20T09:34:51;0.68;;;0.50;;
18322;SDS011;9287;49.456;11.064;2023-07-20T09:37:20;1.17;;;0.47;;
18322;SDS011;9287;49.456;11.064;2023-07-20T09:39:51;1.70;;;0.47;;
18322;SDS011;9287;49.456;11.064;2023-07-20T09:42:22;0.85;;;0.50;;
18322;SDS011;9287;49.456;11.064;2023-07-20T09:44:54;0.82;;;0.50;;
18322;SDS011;9287;49.456;11.064;2023-07-20T09:47:23;1.20;;;0.50;;
18322;SDS011;9287;49.456;11.064;2023-07-20T09:49:57;0.60;;;0.40;;
18322;SDS011;9287;49.456;11.064;2023-07-20T09:52:30;1.58;;;0.50;;
18322;SDS011;9287;49.456;11.064;2023-07-20T09:55:04;1.00;;;0.50;;
18322;SDS011;9287;49.456;11.064;2023-07-20T09:57:33;2.05;;;0.40;;
18322;SDS011;9287;49.456;11.064;2023-07-20T10:00:02;0.70;;;0.70;;
18322;SDS011;9287;49.456;11.064;2023-07-20T10:02:41;1.65;;;0.50;;
18322;SDS011;9287;49.456;11.064;2023-07-20T10:05:11;0.60;;;0.50;;
18322;SDS011;9287;49.456;11.064;2023-07-20T10:07:43;1.30;;;0.50;;
18322;SDS011;9287;49.456;11.064;2023-07-20T10:10:15;0.45;;;0.40;;
18322;SDS011;9287;49.456;11.064;2023-07-20T10:12:44;1.42;;;0.50;;
18322;SDS011;9287;49.456;11.064;2023-07-20T10:15:15;0.40;;;0.40;;
18322;SDS011;9287;49.456;11.064;2023-07-20T10:17:49;0.68;;;0.50;;
18322;SDS011;9287;49.456;11.064;2023-07-20T10:20:24;1.58;;;0.55;;
18322;SDS011;9287;49.456;11.064;2023-07-20T10:22:55;0.88;;;0.52;;
18322;SDS011;9287;49.456;11.064;2023-07-20T10:25:25;0.50;;;0.40;;
18322;SDS011;9287;49.456;11.064;2023-07-20T10:27:54;0.70;;;0.40;;
18322;SDS011;9287;49.456;11.064;2023-07-20T10:30:24;0.50;;;0.50;;
18322;SDS011;9287;49.456;11.064;2023-07-20T10:32:53;1.35;;;0.50;;
18322;SDS011;9287;49.456;11.064;2023-07-20T10:35:21;0.60;;;0.50;;
18322;SDS011;9287;49.456;11.064;2023-07-20T10:37:50;1.65;;;0.50;;
18322;SDS011;9287;49.456;11.064;2023-07-20T10:40:39;2.78;;;0.60;;
18322;SDS011;9287;49.456;11.064;2023-07-20T10:43:08;1.15;;;0.50;;
18322;SDS011;9287;49.456;11.064;2023-07-20T10:45:41;1.15;;;0.50;;
18322;SDS011;9287;49.456;11.064;2023-07-20T10:48:13;0.80;;;0.43;;
18322;SDS011;9287;49.456;11.064;2023-07-20T10:50:43;2.47;;;0.50;;
18322;SDS011;9287;49.456;11.064;2023-07-20T10:53:12;0.60;;;0.60;;
18322;SDS011;9287;49.456;11.064;2023-07-20T10:55:43;1.10;;;0.60;;
18322;SDS011;9287;49.456;11.064;2023-07-20T10:58:12;1.08;;;0.55;;
18322;SDS011;9287;49.456;11.064;2023-07-20T11:00:54;0.60;;;0.50;;
18322;SDS011;9287;49.456;11.064;2023-07-20T11:03:29;0.63;;;0.45;;
18322;SDS011;9287;49.456;11.064;2023-07-20T11:09:04;0.65;;;0.40;;
18322;SDS011;9287;49.456;11.064;2023-07-20T11:11:36;0.80;;;0.40;;
18322;SDS011;9287;49.456;11.064;2023-07-20T11:14:06;1.25;;;0.60;;
18322;SDS011;9287;49.456;11.064;2023-07-20T11:16:38;1.95;;;0.50;;
18322;SDS011;9287;49.456;11.064;2023-07-20T11:19:13;0.77;;;0.45;;
18322;SDS011;9287;49.456;11.064;2023-07-20T11:22:03;0.63;;;0.50;;
18322;SDS011;9287;49.456;11.064;2023-07-20T11:24:34;0.50;;;0.50;;
18322;SDS011;9287;49.456;11.064;2023-07-20T11:27:05;0.47;;;0.40;;
18322;SDS011;9287;49.456;11.064;2023-07-20T11:29:34;1.42;;;0.47;;
18322;SDS011;9287;49.456;11.064;2023-07-20T11:32:03;0.70;;;0.50;;
18322;SDS011;9287;49.456;11.064;2023-07-20T11:34:38;3.30;;;0.63;;
18322;SDS011;9287;49.456;11.064;2023-07-20T11:37:06;0.50;;;0.50;;
18322;SDS011;9287;49.456;11.064;2023-07-20T11:39:36;0.50;;;0.50;;
18322;SDS011;9287;49.456;11.064;2023-07-20T11:42:07;0.88;;;0.57;;
18322;SDS011;9287;49.456;11.064;2023-07-20T11:44:36;0.50;;;0.50;;
18322;SDS011;9287;49.456;11.064;2023-07-20T11:47:05;2.47;;;0.50;;
18322;SDS011;9287;49.456;11.064;2023-07-20T11:49:36;0.98;;;0.60;;
18322;SDS011;9287;49.456;11.064;2023-07-20T11:52:06;1.35;;;0.50;;
18322;SDS011;9287;49.456;11.064;2023-07-20T11:54:35;0.55;;;0.50;;
18322;SDS011;9287;49.456;11.064;2023-07-20T11:57:03;0.77;;;0.50;;
18322;SDS011;9287;49.456;11.064;2023-07-20T11:59:33;0.90;;;0.57;;
18322;SDS011;9287;49.456;11.064;2023-07-20T12:02:02;1.02;;;0.38;;
18322;SDS011;9287;49.456;11.064;2023-07-20T12:04:30;1.85;;;0.50;;
18322;SDS011;9287;49.456;11.064;2023-07-20T12:06:59;1.15;;;0.50;;
18322;SDS011;9287;49.456;11.064;2023-07-20T12:09:27;1.40;;;0.40;;
18322;SDS011;9287;49.456;11.064;2023-07-20T12:12:15;0.40;;;0.40;;
18322;SDS011;9287;49.456;11.064;2023-07-20T12:14:45;0.65;;;0.50;;
18322;SDS011;9287;49.456;11.064;2023-07-20T12:17:12;0.40;;;0.40;;
18322;SDS011;9287;49.456;11.064;2023-07-20T12:19:42;1.13;;;0.38;;
18322;SDS011;9287;49.456;11.064;2023-07-20T12:22:10;0.40;;;0.40;;
18322;SDS011;9287;49.456;11.064;2023-07-20T12:24:38;1.58;;;0.50;;
18322;SDS011;9287;49.456;11.064;2023-07-20T12:27:07;0.88;;;0.50;;
18322;SDS011;9287;49.456;11.064;2023-07-20T12:29:35;0.38;;;0.38;;
18322;SDS011;9287;49.456;11.064;2023-07-20T12:32:06;0.40;;;0.40;;
18322;SDS011;9287;49.456;11.064;2023-07-20T12:34:34;0.63;;;0.47;;
18322;SDS011;9287;49.456;11.064;2023-07-20T12:37:03;0.63;;;0.40;;
18322;SDS011;9287;49.456;11.064;2023-07-20T12:39:31;1.20;;;0.50;;
18322;SDS011;9287;49.456;11.064;2023-07-20T12:41:59;0.68;;;0.45;;
18322;SDS011;9287;49.456;11.064;2023-07-20T12:44:29;0.52;;;0.50;;
18322;SDS011;9287;49.456;11.064;2023-07-20T12:46:58;0.60;;;0.50;;
18322;SDS011;9287;49.456;11.064;2023-07-20T12:49:27;0.68;;;0.40;;
18322;SDS011;9287;49.456;11.064;2023-07-20T12:51:55;0.47;;;0.40;;
18322;SDS011;9287;49.456;11.064;2023-07-20T12:54:23;0.60;;;0.43;;
18322;SDS011;9287;49.456;11.064;2023-07-20T12:56:51;0.52;;;0.50;;
18322;SDS011;9287;49.456;11.064;2023-07-20T12:59:22;1.20;;;0.57;;
18322;SDS011;9287;49.456;11.064;2023-07-20T13:01:50;0.70;;;0.40;;
18322;SDS011;9287;49.456;11.064;2023-07-20T13:04:18;0.55;;;0.55;;
18322;SDS011;9287;49.456;11.064;2023-07-20T13:06:47;1.00;;;0.57;;
18322;SDS011;9287;49.456;11.064;2023-07-20T13:09:15;0.50;;;0.50;;
18322;SDS011;9287;49.456;11.064;2023-07-20T13:11:42;0.60;;;0.60;;
18322;SDS011;9287;49.456;11.064;2023-07-20T13:14:11;0.93;;;0.52;;
18322;SDS011;9287;49.456;11.064;2023-07-20T13:16:39;1.55;;;0.60;;
18322;SDS011;9287;49.456;11.064;2023-07-20T13:19:07;0.65;;;0.50;;
18322;SDS011;9287;49.456;11.064;2023-07-20T13:21:35;0.73;;;0.50;;
18322;SDS011;9287;49.456;11.064;2023-07-20T13:24:05;1.27;;;0.50;;
18322;SDS011;9287;49.456;11.064;2023-07-20T13:26:33;1.02;;;0.50;;
18322;SDS011;9287;49.456;11.064;2023-07-20T13:29:02;4.90;;;0.80;;
18322;SDS011;9287;49.456;11.064;2023-07-20T13:31:30;2.67;;;1.00;;
18322;SDS011;9287;49.456;11.064;2023-07-20T13:34:00;1.60;;;0.60;;
18322;SDS011;9287;49.456;11.064;2023-07-20T13:36:29;0.77;;;0.52;;
18322;SDS011;9287;49.456;11.064;2023-07-20T13:38:59;1.70;;;0.60;;
18322;SDS011;9287;49.456;11.064;2023-07-20T13:41:28;1.65;;;0.60;;
18322;SDS011;9287;49.456;11.064;2023-07-20T13:43:58;1.15;;;0.50;;
18322;SDS011;9287;49.456;11.064;2023-07-20T13:46:26;1.27;;;0.50;;
18322;SDS011;9287;49.456;11.064;2023-07-20T13:48:57;0.45;;;0.45;;
18322;SDS011;9287;49.456;11.064;2023-07-20T13:51:25;0.57;;;0.50;;
18322;SDS011;9287;49.456;11.064;2023-07-20T13:53:53;0.60;;;0.60;;
18322;SDS011;9287;49.456;11.064;2023-07-20T13:56:22;0.60;;;0.52;;
18322;SDS011;9287;49.456;11.064;2023-07-20T13:58:51;1.02;;;0.60;;
18322;SDS011;9287;49.456;11.064;2023-07-20T14:01:19;0.60;;;0.50;;
18322;SDS011;9287;49.456;11.064;2023-07-20T14:03:52;1.60;;;0.60;;
18322;SDS011;9287;49.456;11.064;2023-07-20T14:06:20;0.50;;;0.50;;
18322;SDS011;9287;49.456;11.064;2023-07-20T14:08:52;1.35;;;0.50;;
18322;SDS011;9287;49.456;11.064;2023-07-20T14:11:22;0.73;;;0.40;;
18322;SDS011;9287;49.456;11.064;2023-07-20T14:13:55;0.90;;;0.70;;
18322;SDS011;9287;49.456;11.064;2023-07-20T14:16:24;2.00;;;0.60;;
18322;SDS011;9287;49.456;11.064;2023-07-20T14:18:53;0.75;;;0.50;;
18322;SDS011;9287;49.456;11.064;2023-07-20T14:21:22;0.47;;;0.47;;
18322;SDS011;9287;49.456;11.064;2023-07-20T14:23:51;1.40;;;0.50;;
18322;SDS011;9287;49.456;11.064;2023-07-20T14:26:20;1.05;;;0.50;;
18322;SDS011;9287;49.456;11.064;2023-07-20T14:28:49;0.63;;;0.55;;
18322;SDS011;9287;49.456;11.064;2023-07-20T14:31:18;0.57;;;0.50;;
18322;SDS011;9287;49.456;11.064;2023-07-20T14:33:47;1.48;;;0.60;;
18322;SDS011;9287;49.456;11.064;2023-07-20T14:36:15;0.40;;;0.40;;
18322;SDS011;9287;49.456;11.064;2023-07-20T14:38:44;1.05;;;0.55;;
18322;SDS011;9287;49.456;11.064;2023-07-20T14:41:12;1.95;;;0.50;;
18322;SDS011;9287;49.456;11.064;2023-07-20T14:43:40;1.13;;;0.90;;
18322;SDS011;9287;49.456;11.064;2023-07-20T14:46:09;0.40;;;0.40;;
18322;SDS011;9287;49.456;11.064;2023-07-20T14:48:38;0.98;;;0.50;;
18322;SDS011;9287;49.456;11.064;2023-07-20T14:51:06;1.20;;;0.50;;
18322;SDS011;9287;49.456;11.064;2023-07-20T14:53:34;0.50;;;0.50;;
18322;SDS011;9287;49.456;11.064;2023-07-20T14:56:02;0.50;;;0.47;;
18322;SDS011;9287;49.456;11.064;2023-07-20T14:58:31;0.77;;;0.50;;
18322;SDS011;9287;49.456;11.064;2023-07-20T15:01:01;0.70;;;0.55;;
18322;SDS011;9287;49.456;11.064;2023-07-20T15:03:30;0.60;;;0.60;;
18322;SDS011;9287;49.456;11.064;2023-07-20T15:06:00;1.50;;;0.45;;